sensor_id;sensor_type;location;lat;lon;timestamp;P1;durP1;ratioP1;P2;durP2;ratioP2
62574;SDS011;53112;45.602;11.904;2022-07-23T00:00:03;14.13;;;10.60;;
62574;SDS011;53112;45.602;11.904;2022-07-23T00:02:31;16.27;;;12.40;;
62574;SDS011;53112;45.602;11.904;2022-07-23T00:04:57;13.38;;;11.52;;
62574;SDS011;53112;45.602;11.904;2022-07-23T00:07:23;16.90;;;12.48;;
62574;SDS011;53112;45.602;11.904;2022-07-23T00:09:49;15.85;;;11.88;;
62574;SDS011;53112;45.602;11.904;2022-07-23T00:12:15;15.70;;;12.15;;
62574;SDS011;53112;45.602;11.904;2022-07-23T00:14:41;12.82;;;11.43;;
62574;SDS011;53112;45.602;11.904;2022-07-23T00:17:07;16.52;;;12.20;;
62574;SDS011;53112;45.602;11.904;2022-07-23T00:19:33;14.43;;;12.00;;
62574;SDS011;53112;45.602;11.904;2022-07-23T00:21:59;16.42;;;12.63;;
62574;SDS011;53112;45.602;11.904;2022-07-23T00:24:25;14.15;;;12.48;;
62574;SDS011;53112;45.602;11.904;2022-07-23T00:26:51;16.05;;;13.13;;
62574;SDS011;53112;45.602;11.904;2022-07-23T00:29:17;18.63;;;13.85;;
62574;SDS011;53112;45.602;11.904;2022-07-23T00:31:43;18.95;;;13.50;;
62574;SDS011;53112;45.602;11.904;2022-07-23T00:34:09;15.57;;;12.93;;
62574;SDS011;53112;45.602;11.904;2022-07-23T00:36:35;17.02;;;13.48;;
62574;SDS011;53112;45.602;11.904;2022-07-23T00:39:01;19.88;;;14.55;;
62574;SDS011;53112;45.602;11.904;2022-07-23T00:41:28;17.38;;;14.20;;
62574;SDS011;53112;45.602;11.904;2022-07-23T00:43:54;16.20;;;14.15;;
62574;SDS011;53112;45.602;11.904;2022-07-23T00:46:20;15.55;;;13.77;;
62574;SDS011;53112;45.602;11.904;2022-07-23T00:48:47;17.60;;;14.15;;
62574;SDS011;53112;45.602;11.904;2022-07-23T00:51:17;16.27;;;13.70;;
62574;SDS011;53112;45.602;11.904;2022-07-23T00:53:43;14.57;;;13.07;;
62574;SDS011;53112;45.602;11.904;2022-07-23T00:56:10;15.23;;;13.38;;
62574;SDS011;53112;45.602;11.904;2022-07-23T00:58:37;16.02;;;12.77;;
62574;SDS011;53112;45.602;11.904;2022-07-23T01:01:05;18.35;;;14.00;;
62574;SDS011;53112;45.602;11.904;2022-07-23T01:03:33;15.73;;;12.30;;
62574;SDS011;53112;45.602;11.904;2022-07-23T01:05:59;16.83;;;12.95;;
62574;SDS011;53112;45.602;11.904;2022-07-23T01:08:25;16.45;;;13.23;;
62574;SDS011;53112;45.602;11.904;2022-07-23T01:10:51;17.38;;;13.55;;
62574;SDS011;53112;45.602;11.904;2022-07-23T01:13:17;15.10;;;13.00;;
62574;SDS011;53112;45.602;11.904;2022-07-23T01:15:43;15.80;;;12.98;;
62574;SDS011;53112;45.602;11.904;2022-07-23T01:18:09;17.30;;;13.85;;
62574;SDS011;53112;45.602;11.904;2022-07-23T01:20:37;18.98;;;14.25;;
62574;SDS011;53112;45.602;11.904;2022-07-23T01:23:03;18.75;;;14.88;;
62574;SDS011;53112;45.602;11.904;2022-07-23T01:25:29;18.67;;;14.55;;
62574;SDS011;53112;45.602;11.904;2022-07-23T01:27:55;17.05;;;15.07;;
62574;SDS011;53112;45.602;11.904;2022-07-23T01:30:21;17.60;;;15.15;;
62574;SDS011;53112;45.602;11.904;2022-07-23T01:32:47;18.23;;;14.98;;
62574;SDS011;53112;45.602;11.904;2022-07-23T01:35:13;19.90;;;16.33;;
62574;SDS011;53112;45.602;11.904;2022-07-23T01:37:39;18.17;;;14.65;;
62574;SDS011;53112;45.602;11.904;2022-07-23T01:40:05;18.17;;;14.43;;
62574;SDS011;53112;45.602;11.904;2022-07-23T01:42:32;18.83;;;15.45;;
62574;SDS011;53112;45.602;11.904;2022-07-23T01:44:58;15.98;;;13.93;;
62574;SDS011;53112;45.602;11.904;2022-07-23T01:47:24;17.88;;;13.73;;
62574;SDS011;53112;45.602;11.904;2022-07-23T01:49:52;19.48;;;15.85;;
62574;SDS011;53112;45.602;11.904;2022-07-23T01:52:18;19.17;;;16.42;;
62574;SDS011;53112;45.602;11.904;2022-07-23T01:54:44;18.63;;;15.80;;
62574;SDS011;53112;45.602;11.904;2022-07-23T01:57:10;18.65;;;15.80;;
62574;SDS011;53112;45.602;11.904;2022-07-23T01:59:36;21.58;;;15.90;;
62574;SDS011;53112;45.602;11.904;2022-07-23T02:02:02;21.90;;;18.05;;
62574;SDS011;53112;45.602;11.904;2022-07-23T02:04:28;19.33;;;16.50;;
62574;SDS011;53112;45.602;11.904;2022-07-23T02:06:54;17.52;;;14.80;;
62574;SDS011;53112;45.602;11.904;2022-07-23T02:09:21;18.77;;;16.58;;
62574;SDS011;53112;45.602;11.904;2022-07-23T02:11:47;18.50;;;16.15;;
62574;SDS011;53112;45.602;11.904;2022-07-23T02:14:13;20.27;;;16.75;;
62574;SDS011;53112;45.602;11.904;2022-07-23T02:16:40;22.33;;;17.58;;
62574;SDS011;53112;45.602;11.904;2022-07-23T02:19:05;20.58;;;18.25;;
62574;SDS011;53112;45.602;11.904;2022-07-23T02:21:31;21.80;;;17.52;;
62574;SDS011;53112;45.602;11.904;2022-07-23T02:23:57;17.50;;;15.60;;
62574;SDS011;53112;45.602;11.904;2022-07-23T02:26:23;17.13;;;15.35;;
62574;SDS011;53112;45.602;11.904;2022-07-23T02:28:49;16.15;;;13.63;;
62574;SDS011;53112;45.602;11.904;2022-07-23T02:31:15;17.15;;;15.23;;
62574;SDS011;53112;45.602;11.904;2022-07-23T02:33:41;18.25;;;14.23;;
62574;SDS011;53112;45.602;11.904;2022-07-23T02:36:07;19.50;;;15.45;;
62574;SDS011;53112;45.602;11.904;2022-07-23T02:38:33;19.30;;;16.73;;
62574;SDS011;53112;45.602;11.904;2022-07-23T02:40:59;19.55;;;17.40;;
62574;SDS011;53112;45.602;11.904;2022-07-23T02:43:25;20.25;;;17.95;;
62574;SDS011;53112;45.602;11.904;2022-07-23T02:45:51;20.85;;;17.25;;
62574;SDS011;53112;45.602;11.904;2022-07-23T02:48:17;17.42;;;15.63;;
62574;SDS011;53112;45.602;11.904;2022-07-23T02:50:42;18.83;;;15.50;;
62574;SDS011;53112;45.602;11.904;2022-07-23T02:53:08;17.27;;;14.82;;
62574;SDS011;53112;45.602;11.904;2022-07-23T02:55:34;17.05;;;14.15;;
62574;SDS011;53112;45.602;11.904;2022-07-23T02:58:00;15.60;;;13.77;;
62574;SDS011;53112;45.602;11.904;2022-07-23T03:00:26;15.27;;;13.68;;
62574;SDS011;53112;45.602;11.904;2022-07-23T03:02:52;15.55;;;13.85;;
62574;SDS011;53112;45.602;11.904;2022-07-23T03:05:18;18.67;;;14.05;;
62574;SDS011;53112;45.602;11.904;2022-07-23T03:07:43;18.27;;;15.70;;
62574;SDS011;53112;45.602;11.904;2022-07-23T03:10:09;18.70;;;15.82;;
62574;SDS011;53112;45.602;11.904;2022-07-23T03:12:35;20.00;;;15.68;;
62574;SDS011;53112;45.602;11.904;2022-07-23T03:15:01;18.40;;;15.85;;
62574;SDS011;53112;45.602;11.904;2022-07-23T03:17:27;16.48;;;14.68;;
62574;SDS011;53112;45.602;11.904;2022-07-23T03:19:53;18.48;;;14.93;;
62574;SDS011;53112;45.602;11.904;2022-07-23T03:22:19;15.15;;;13.52;;
62574;SDS011;53112;45.602;11.904;2022-07-23T03:24:45;18.83;;;14.20;;
62574;SDS011;53112;45.602;11.904;2022-07-23T03:27:21;18.02;;;15.57;;
62574;SDS011;53112;45.602;11.904;2022-07-23T03:29:49;17.77;;;15.52;;
62574;SDS011;53112;45.602;11.904;2022-07-23T03:32:16;19.02;;;16.33;;
62574;SDS011;53112;45.602;11.904;2022-07-23T03:34:42;16.83;;;15.00;;
62574;SDS011;53112;45.602;11.904;2022-07-23T03:37:08;16.33;;;14.60;;
62574;SDS011;53112;45.602;11.904;2022-07-23T03:39:34;17.25;;;13.27;;
62574;SDS011;53112;45.602;11.904;2022-07-23T03:42:01;15.63;;;13.15;;
62574;SDS011;53112;45.602;11.904;2022-07-23T03:44:27;17.13;;;14.18;;
62574;SDS011;53112;45.602;11.904;2022-07-23T03:46:53;18.70;;;13.70;;
62574;SDS011;53112;45.602;11.904;2022-07-23T03:49:19;14.38;;;12.30;;
62574;SDS011;53112;45.602;11.904;2022-07-23T03:51:45;15.68;;;13.55;;
62574;SDS011;53112;45.602;11.904;2022-07-23T03:54:11;16.25;;;13.52;;
62574;SDS011;53112;45.602;11.904;2022-07-23T03:56:37;16.23;;;14.50;;
62574;SDS011;53112;45.602;11.904;2022-07-23T03:59:03;13.82;;;12.25;;
62574;SDS011;53112;45.602;11.904;2022-07-23T04:01:29;18.10;;;14.48;;
62574;SDS011;53112;45.602;11.904;2022-07-23T04:03:55;16.58;;;13.25;;
62574;SDS011;53112;45.602;11.904;2022-07-23T04:06:21;19.85;;;14.68;;
62574;SDS011;53112;45.602;11.904;2022-07-23T04:08:47;18.58;;;15.18;;
62574;SDS011;53112;45.602;11.904;2022-07-23T04:11:13;18.20;;;14.68;;
62574;SDS011;53112;45.602;11.904;2022-07-23T04:13:39;21.48;;;16.48;;
62574;SDS011;53112;45.602;11.904;2022-07-23T04:16:05;17.73;;;15.48;;
62574;SDS011;53112;45.602;11.904;2022-07-23T04:18:31;17.30;;;15.10;;
62574;SDS011;53112;45.602;11.904;2022-07-23T04:20:57;17.02;;;15.05;;
62574;SDS011;53112;45.602;11.904;2022-07-23T04:23:23;21.25;;;15.63;;
62574;SDS011;53112;45.602;11.904;2022-07-23T04:25:49;18.58;;;15.77;;
62574;SDS011;53112;45.602;11.904;2022-07-23T04:28:15;14.95;;;13.20;;
62574;SDS011;53112;45.602;11.904;2022-07-23T04:30:41;17.83;;;14.10;;
62574;SDS011;53112;45.602;11.904;2022-07-23T04:33:07;18.58;;;14.98;;
62574;SDS011;53112;45.602;11.904;2022-07-23T04:35:34;16.42;;;14.50;;
62574;SDS011;53112;45.602;11.904;2022-07-23T04:38:00;19.15;;;15.25;;
62574;SDS011;53112;45.602;11.904;2022-07-23T04:40:27;18.48;;;15.43;;
62574;SDS011;53112;45.602;11.904;2022-07-23T04:42:53;16.02;;;13.60;;
62574;SDS011;53112;45.602;11.904;2022-07-23T04:45:20;18.13;;;14.93;;
62574;SDS011;53112;45.602;11.904;2022-07-23T04:47:45;18.38;;;14.73;;
62574;SDS011;53112;45.602;11.904;2022-07-23T04:50:11;18.02;;;15.23;;
62574;SDS011;53112;45.602;11.904;2022-07-23T04:52:37;16.73;;;14.27;;
62574;SDS011;53112;45.602;11.904;2022-07-23T04:55:04;15.73;;;13.23;;
62574;SDS011;53112;45.602;11.904;2022-07-23T04:57:30;16.40;;;14.15;;
62574;SDS011;53112;45.602;11.904;2022-07-23T04:59:56;21.13;;;15.95;;
62574;SDS011;53112;45.602;11.904;2022-07-23T05:02:22;21.83;;;15.73;;
62574;SDS011;53112;45.602;11.904;2022-07-23T05:04:48;17.00;;;13.95;;
62574;SDS011;53112;45.602;11.904;2022-07-23T05:07:14;21.85;;;15.05;;
62574;SDS011;53112;45.602;11.904;2022-07-23T05:09:39;19.08;;;14.18;;
62574;SDS011;53112;45.602;11.904;2022-07-23T05:12:05;21.38;;;14.35;;
62574;SDS011;53112;45.602;11.904;2022-07-23T05:14:31;17.70;;;14.85;;
62574;SDS011;53112;45.602;11.904;2022-07-23T05:16:57;20.98;;;15.00;;
62574;SDS011;53112;45.602;11.904;2022-07-23T05:19:23;16.45;;;13.93;;
62574;SDS011;53112;45.602;11.904;2022-07-23T05:21:49;18.88;;;15.00;;
62574;SDS011;53112;45.602;11.904;2022-07-23T05:24:15;19.02;;;15.48;;
62574;SDS011;53112;45.602;11.904;2022-07-23T05:26:41;22.38;;;16.52;;
62574;SDS011;53112;45.602;11.904;2022-07-23T05:29:07;20.40;;;16.38;;
62574;SDS011;53112;45.602;11.904;2022-07-23T05:31:33;20.35;;;15.93;;
62574;SDS011;53112;45.602;11.904;2022-07-23T05:33:59;19.23;;;15.20;;
62574;SDS011;53112;45.602;11.904;2022-07-23T05:36:25;18.38;;;15.65;;
62574;SDS011;53112;45.602;11.904;2022-07-23T05:38:51;21.92;;;17.92;;
62574;SDS011;53112;45.602;11.904;2022-07-23T05:41:17;21.85;;;18.25;;
62574;SDS011;53112;45.602;11.904;2022-07-23T05:43:43;20.52;;;17.38;;
62574;SDS011;53112;45.602;11.904;2022-07-23T05:46:09;19.23;;;17.02;;
62574;SDS011;53112;45.602;11.904;2022-07-23T05:48:35;18.35;;;16.38;;
62574;SDS011;53112;45.602;11.904;2022-07-23T05:51:01;18.73;;;15.80;;
62574;SDS011;53112;45.602;11.904;2022-07-23T05:53:31;20.40;;;17.83;;
62574;SDS011;53112;45.602;11.904;2022-07-23T05:55:57;17.60;;;15.77;;
62574;SDS011;53112;45.602;11.904;2022-07-23T05:58:23;21.17;;;17.90;;
62574;SDS011;53112;45.602;11.904;2022-07-23T06:00:49;19.60;;;16.67;;
62574;SDS011;53112;45.602;11.904;2022-07-23T06:03:15;20.33;;;16.88;;
62574;SDS011;53112;45.602;11.904;2022-07-23T06:05:41;19.33;;;17.20;;
62574;SDS011;53112;45.602;11.904;2022-07-23T06:08:07;20.77;;;16.90;;
62574;SDS011;53112;45.602;11.904;2022-07-23T06:10:33;18.30;;;16.08;;
62574;SDS011;53112;45.602;11.904;2022-07-23T06:12:59;19.65;;;16.73;;
62574;SDS011;53112;45.602;11.904;2022-07-23T06:15:24;18.27;;;16.38;;
62574;SDS011;53112;45.602;11.904;2022-07-23T06:17:50;19.67;;;17.13;;
62574;SDS011;53112;45.602;11.904;2022-07-23T06:20:16;18.10;;;15.75;;
62574;SDS011;53112;45.602;11.904;2022-07-23T06:22:42;17.00;;;15.15;;
62574;SDS011;53112;45.602;11.904;2022-07-23T06:25:08;19.52;;;15.38;;
62574;SDS011;53112;45.602;11.904;2022-07-23T06:27:34;17.92;;;15.10;;
62574;SDS011;53112;45.602;11.904;2022-07-23T06:30:00;17.10;;;15.40;;
62574;SDS011;53112;45.602;11.904;2022-07-23T06:32:26;15.32;;;13.75;;
62574;SDS011;53112;45.602;11.904;2022-07-23T06:34:51;19.42;;;14.43;;
62574;SDS011;53112;45.602;11.904;2022-07-23T06:37:17;16.67;;;14.25;;
62574;SDS011;53112;45.602;11.904;2022-07-23T06:39:43;16.05;;;13.73;;
62574;SDS011;53112;45.602;11.904;2022-07-23T06:42:09;17.60;;;13.80;;
62574;SDS011;53112;45.602;11.904;2022-07-23T06:44:37;18.55;;;13.90;;
62574;SDS011;53112;45.602;11.904;2022-07-23T06:47:03;18.50;;;14.55;;
62574;SDS011;53112;45.602;11.904;2022-07-23T06:49:29;16.50;;;14.02;;
62574;SDS011;53112;45.602;11.904;2022-07-23T06:51:55;16.13;;;13.95;;
62574;SDS011;53112;45.602;11.904;2022-07-23T06:54:20;18.08;;;14.13;;
62574;SDS011;53112;45.602;11.904;2022-07-23T06:56:46;17.05;;;13.63;;
62574;SDS011;53112;45.602;11.904;2022-07-23T06:59:12;15.38;;;12.93;;
62574;SDS011;53112;45.602;11.904;2022-07-23T07:01:38;18.75;;;13.88;;
62574;SDS011;53112;45.602;11.904;2022-07-23T07:04:04;15.15;;;13.55;;
62574;SDS011;53112;45.602;11.904;2022-07-23T07:06:30;15.63;;;13.27;;
62574;SDS011;53112;45.602;11.904;2022-07-23T07:08:55;14.27;;;12.65;;
62574;SDS011;53112;45.602;11.904;2022-07-23T07:11:21;14.82;;;13.20;;
62574;SDS011;53112;45.602;11.904;2022-07-23T07:13:49;16.75;;;13.55;;
62574;SDS011;53112;45.602;11.904;2022-07-23T07:16:15;16.58;;;13.77;;
62574;SDS011;53112;45.602;11.904;2022-07-23T07:18:40;17.30;;;13.65;;
62574;SDS011;53112;45.602;11.904;2022-07-23T07:21:06;16.83;;;12.80;;
62574;SDS011;53112;45.602;11.904;2022-07-23T07:23:32;16.42;;;13.48;;
62574;SDS011;53112;45.602;11.904;2022-07-23T07:25:58;14.20;;;12.40;;
62574;SDS011;53112;45.602;11.904;2022-07-23T07:28:24;16.13;;;12.77;;
62574;SDS011;53112;45.602;11.904;2022-07-23T07:30:50;16.23;;;13.45;;
62574;SDS011;53112;45.602;11.904;2022-07-23T07:33:16;17.05;;;13.32;;
62574;SDS011;53112;45.602;11.904;2022-07-23T07:35:42;14.68;;;12.32;;
62574;SDS011;53112;45.602;11.904;2022-07-23T07:38:08;12.77;;;11.45;;
62574;SDS011;53112;45.602;11.904;2022-07-23T07:40:34;13.25;;;11.88;;
62574;SDS011;53112;45.602;11.904;2022-07-23T07:43:00;15.88;;;12.38;;
62574;SDS011;53112;45.602;11.904;2022-07-23T07:45:28;14.73;;;11.95;;
62574;SDS011;53112;45.602;11.904;2022-07-23T07:47:54;13.82;;;12.38;;
62574;SDS011;53112;45.602;11.904;2022-07-23T07:50:21;14.95;;;12.07;;
62574;SDS011;53112;45.602;11.904;2022-07-23T07:52:47;14.20;;;11.73;;
62574;SDS011;53112;45.602;11.904;2022-07-23T07:55:13;13.82;;;11.30;;
62574;SDS011;53112;45.602;11.904;2022-07-23T07:57:39;13.55;;;12.15;;
62574;SDS011;53112;45.602;11.904;2022-07-23T08:00:07;13.82;;;12.27;;
62574;SDS011;53112;45.602;11.904;2022-07-23T08:02:41;13.35;;;11.38;;
62574;SDS011;53112;45.602;11.904;2022-07-23T08:05:14;15.23;;;11.93;;
62574;SDS011;53112;45.602;11.904;2022-07-23T08:07:44;12.63;;;10.95;;
62574;SDS011;53112;45.602;11.904;2022-07-23T08:10:10;13.52;;;11.80;;
62574;SDS011;53112;45.602;11.904;2022-07-23T08:15:11;14.70;;;11.10;;
62574;SDS011;53112;45.602;11.904;2022-07-23T08:17:38;15.75;;;11.27;;
62574;SDS011;53112;45.602;11.904;2022-07-23T08:20:05;14.02;;;11.52;;
62574;SDS011;53112;45.602;11.904;2022-07-23T08:25:08;12.45;;;11.10;;
62574;SDS011;53112;45.602;11.904;2022-07-23T08:27:35;12.18;;;10.88;;
62574;SDS011;53112;45.602;11.904;2022-07-23T08:30:01;13.00;;;10.82;;
62574;SDS011;53112;45.602;11.904;2022-07-23T08:32:28;11.85;;;10.65;;
62574;SDS011;53112;45.602;11.904;2022-07-23T08:34:54;11.65;;;10.30;;
62574;SDS011;53112;45.602;11.904;2022-07-23T08:37:20;13.57;;;11.30;;
62574;SDS011;53112;45.602;11.904;2022-07-23T08:39:46;11.68;;;10.35;;
62574;SDS011;53112;45.602;11.904;2022-07-23T08:42:13;11.63;;;10.20;;
62574;SDS011;53112;45.602;11.904;2022-07-23T08:44:44;12.88;;;10.88;;
62574;SDS011;53112;45.602;11.904;2022-07-23T08:47:14;12.50;;;11.27;;
62574;SDS011;53112;45.602;11.904;2022-07-23T08:49:41;13.55;;;10.88;;
62574;SDS011;53112;45.602;11.904;2022-07-23T08:52:08;12.95;;;10.88;;
62574;SDS011;53112;45.602;11.904;2022-07-23T08:54:34;13.52;;;11.02;;
62574;SDS011;53112;45.602;11.904;2022-07-23T08:57:00;11.75;;;10.55;;
62574;SDS011;53112;45.602;11.904;2022-07-23T08:59:26;14.38;;;10.73;;
62574;SDS011;53112;45.602;11.904;2022-07-23T09:01:53;11.85;;;10.60;;
62574;SDS011;53112;45.602;11.904;2022-07-23T09:04:19;12.63;;;10.60;;
62574;SDS011;53112;45.602;11.904;2022-07-23T09:06:45;11.43;;;10.25;;
62574;SDS011;53112;45.602;11.904;2022-07-23T09:09:17;12.00;;;9.95;;
62574;SDS011;53112;45.602;11.904;2022-07-23T09:11:46;14.50;;;10.60;;
62574;SDS011;53112;45.602;11.904;2022-07-23T09:14:13;12.52;;;10.65;;
62574;SDS011;53112;45.602;11.904;2022-07-23T09:16:39;11.43;;;10.30;;
62574;SDS011;53112;45.602;11.904;2022-07-23T09:19:06;12.32;;;11.00;;
62574;SDS011;53112;45.602;11.904;2022-07-23T09:21:36;13.52;;;11.80;;
62574;SDS011;53112;45.602;11.904;2022-07-23T09:29:04;15.50;;;11.20;;
62574;SDS011;53112;45.602;11.904;2022-07-23T09:32:00;12.40;;;11.10;;
62574;SDS011;53112;45.602;11.904;2022-07-23T09:34:31;12.90;;;10.85;;
62574;SDS011;53112;45.602;11.904;2022-07-23T09:39:37;12.70;;;10.77;;
62574;SDS011;53112;45.602;11.904;2022-07-23T09:42:22;16.27;;;11.45;;
62574;SDS011;53112;45.602;11.904;2022-07-23T09:44:50;13.15;;;11.48;;
62574;SDS011;53112;45.602;11.904;2022-07-23T09:47:21;12.05;;;10.75;;
62574;SDS011;53112;45.602;11.904;2022-07-23T09:55:14;10.27;;;9.02;;
62574;SDS011;53112;45.602;11.904;2022-07-23T09:57:42;9.90;;;8.73;;
62574;SDS011;53112;45.602;11.904;2022-07-23T10:00:10;11.60;;;8.75;;
62574;SDS011;53112;45.602;11.904;2022-07-23T10:02:38;11.18;;;9.85;;
62574;SDS011;53112;45.602;11.904;2022-07-23T10:05:05;10.05;;;9.05;;
62574;SDS011;53112;45.602;11.904;2022-07-23T10:07:33;9.90;;;8.88;;
62574;SDS011;53112;45.602;11.904;2022-07-23T10:10:03;9.60;;;8.60;;
62574;SDS011;53112;45.602;11.904;2022-07-23T10:12:30;10.38;;;8.70;;
62574;SDS011;53112;45.602;11.904;2022-07-23T10:14:59;9.10;;;8.20;;
62574;SDS011;53112;45.602;11.904;2022-07-23T10:17:29;9.27;;;7.70;;
62574;SDS011;53112;45.602;11.904;2022-07-23T10:19:55;9.15;;;7.68;;
62574;SDS011;53112;45.602;11.904;2022-07-23T10:22:33;10.32;;;8.02;;
62574;SDS011;53112;45.602;11.904;2022-07-23T10:35:57;7.55;;;6.63;;
62574;SDS011;53112;45.602;11.904;2022-07-23T10:38:41;7.35;;;6.40;;
62574;SDS011;53112;45.602;11.904;2022-07-23T10:41:40;7.95;;;6.50;;
62574;SDS011;53112;45.602;11.904;2022-07-23T10:46:33;8.10;;;6.25;;
62574;SDS011;53112;45.602;11.904;2022-07-23T10:54:38;8.27;;;6.07;;
62574;SDS011;53112;45.602;11.904;2022-07-23T11:02:27;7.65;;;5.13;;
62574;SDS011;53112;45.602;11.904;2022-07-23T11:04:58;6.10;;;4.30;;
62574;SDS011;53112;45.602;11.904;2022-07-23T11:07:28;6.20;;;4.70;;
62574;SDS011;53112;45.602;11.904;2022-07-23T11:09:55;6.82;;;4.80;;
62574;SDS011;53112;45.602;11.904;2022-07-23T11:14:59;6.47;;;4.53;;
62574;SDS011;53112;45.602;11.904;2022-07-23T11:17:39;8.15;;;5.25;;
62574;SDS011;53112;45.602;11.904;2022-07-23T11:22:38;7.78;;;5.50;;
62574;SDS011;53112;45.602;11.904;2022-07-23T11:27:50;5.40;;;4.85;;
62574;SDS011;53112;45.602;11.904;2022-07-23T11:32:51;5.82;;;4.20;;
62574;SDS011;53112;45.602;11.904;2022-07-23T11:35:22;6.18;;;4.70;;
62574;SDS011;53112;45.602;11.904;2022-07-23T11:37:51;6.43;;;4.47;;
62574;SDS011;53112;45.602;11.904;2022-07-23T11:40:24;6.15;;;4.50;;
62574;SDS011;53112;45.602;11.904;2022-07-23T11:45:22;9.25;;;4.57;;
62574;SDS011;53112;45.602;11.904;2022-07-23T11:47:50;6.22;;;4.45;;
62574;SDS011;53112;45.602;11.904;2022-07-23T11:50:16;5.05;;;4.45;;
62574;SDS011;53112;45.602;11.904;2022-07-23T11:52:42;7.93;;;4.38;;
62574;SDS011;53112;45.602;11.904;2022-07-23T11:55:10;6.15;;;4.53;;
62574;SDS011;53112;45.602;11.904;2022-07-23T11:57:39;5.65;;;4.50;;
62574;SDS011;53112;45.602;11.904;2022-07-23T12:00:11;6.53;;;4.40;;
62574;SDS011;53112;45.602;11.904;2022-07-23T12:02:43;6.43;;;4.50;;
62574;SDS011;53112;45.602;11.904;2022-07-23T12:05:19;5.80;;;4.13;;
62574;SDS011;53112;45.602;11.904;2022-07-23T12:07:48;6.45;;;4.50;;
62574;SDS011;53112;45.602;11.904;2022-07-23T12:10:17;7.13;;;4.55;;
62574;SDS011;53112;45.602;11.904;2022-07-23T12:12:47;6.28;;;4.50;;
62574;SDS011;53112;45.602;11.904;2022-07-23T12:15:22;7.03;;;4.80;;
62574;SDS011;53112;45.602;11.904;2022-07-23T12:17:50;5.83;;;4.60;;
62574;SDS011;53112;45.602;11.904;2022-07-23T12:20:19;6.00;;;4.80;;
62574;SDS011;53112;45.602;11.904;2022-07-23T12:22:51;7.93;;;4.80;;
62574;SDS011;53112;45.602;11.904;2022-07-23T12:25:22;6.13;;;4.15;;
62574;SDS011;53112;45.602;11.904;2022-07-23T12:30:30;5.18;;;3.60;;
62574;SDS011;53112;45.602;11.904;2022-07-23T12:32:58;5.10;;;3.92;;
62574;SDS011;53112;45.602;11.904;2022-07-23T12:35:44;4.53;;;3.90;;
62574;SDS011;53112;45.602;11.904;2022-07-23T12:38:15;5.05;;;3.90;;
62574;SDS011;53112;45.602;11.904;2022-07-23T12:40:47;5.60;;;3.70;;
62574;SDS011;53112;45.602;11.904;2022-07-23T12:43:27;5.28;;;3.97;;
62574;SDS011;53112;45.602;11.904;2022-07-23T12:45:56;5.72;;;4.30;;
62574;SDS011;53112;45.602;11.904;2022-07-23T12:48:29;6.32;;;4.38;;
62574;SDS011;53112;45.602;11.904;2022-07-23T12:51:06;5.10;;;4.10;;
62574;SDS011;53112;45.602;11.904;2022-07-23T12:53:46;6.80;;;4.40;;
62574;SDS011;53112;45.602;11.904;2022-07-23T12:56:17;6.40;;;4.25;;
62574;SDS011;53112;45.602;11.904;2022-07-23T12:58:51;6.00;;;4.20;;
62574;SDS011;53112;45.602;11.904;2022-07-23T13:06:25;6.15;;;4.30;;
62574;SDS011;53112;45.602;11.904;2022-07-23T13:08:52;5.68;;;4.22;;
62574;SDS011;53112;45.602;11.904;2022-07-23T13:11:18;5.10;;;4.00;;
62574;SDS011;53112;45.602;11.904;2022-07-23T13:13:44;5.90;;;4.10;;
62574;SDS011;53112;45.602;11.904;2022-07-23T13:16:10;4.53;;;3.80;;
62574;SDS011;53112;45.602;11.904;2022-07-23T13:18:36;4.65;;;3.83;;
62574;SDS011;53112;45.602;11.904;2022-07-23T13:21:05;5.93;;;4.30;;
62574;SDS011;53112;45.602;11.904;2022-07-23T13:23:31;6.47;;;4.20;;
62574;SDS011;53112;45.602;11.904;2022-07-23T13:25:57;4.85;;;4.00;;
62574;SDS011;53112;45.602;11.904;2022-07-23T13:28:23;5.05;;;3.80;;
62574;SDS011;53112;45.602;11.904;2022-07-23T13:30:49;5.97;;;4.07;;
62574;SDS011;53112;45.602;11.904;2022-07-23T13:33:21;5.20;;;4.00;;
62574;SDS011;53112;45.602;11.904;2022-07-23T13:35:49;7.65;;;4.78;;
62574;SDS011;53112;45.602;11.904;2022-07-23T13:38:16;7.63;;;4.82;;
62574;SDS011;53112;45.602;11.904;2022-07-23T13:40:44;8.15;;;5.05;;
62574;SDS011;53112;45.602;11.904;2022-07-23T13:43:15;6.78;;;4.47;;
62574;SDS011;53112;45.602;11.904;2022-07-23T13:45:42;6.22;;;4.75;;
62574;SDS011;53112;45.602;11.904;2022-07-23T13:48:10;6.10;;;4.47;;
62574;SDS011;53112;45.602;11.904;2022-07-23T13:50:36;6.88;;;4.80;;
62574;SDS011;53112;45.602;11.904;2022-07-23T13:53:04;8.15;;;5.50;;
62574;SDS011;53112;45.602;11.904;2022-07-23T13:55:32;8.25;;;5.47;;
62574;SDS011;53112;45.602;11.904;2022-07-23T13:57:59;8.52;;;5.40;;
62574;SDS011;53112;45.602;11.904;2022-07-23T14:00:26;7.43;;;5.30;;
62574;SDS011;53112;45.602;11.904;2022-07-23T14:02:53;6.55;;;5.53;;
62574;SDS011;53112;45.602;11.904;2022-07-23T14:05:19;6.97;;;5.60;;
62574;SDS011;53112;45.602;11.904;2022-07-23T14:07:45;9.00;;;5.70;;
62574;SDS011;53112;45.602;11.904;2022-07-23T14:10:15;9.23;;;5.57;;
62574;SDS011;53112;45.602;11.904;2022-07-23T14:12:43;8.73;;;5.40;;
62574;SDS011;53112;45.602;11.904;2022-07-23T14:15:10;8.30;;;5.68;;
62574;SDS011;53112;45.602;11.904;2022-07-23T14:17:36;8.85;;;6.00;;
62574;SDS011;53112;45.602;11.904;2022-07-23T14:20:04;6.18;;;5.57;;
62574;SDS011;53112;45.602;11.904;2022-07-23T14:22:32;8.25;;;5.93;;
62574;SDS011;53112;45.602;11.904;2022-07-23T14:24:58;6.85;;;5.75;;
62574;SDS011;53112;45.602;11.904;2022-07-23T14:27:26;6.40;;;5.68;;
62574;SDS011;53112;45.602;11.904;2022-07-23T14:29:53;7.82;;;5.82;;
62574;SDS011;53112;45.602;11.904;2022-07-23T14:32:20;7.10;;;5.80;;
62574;SDS011;53112;45.602;11.904;2022-07-23T14:34:47;8.00;;;6.00;;
62574;SDS011;53112;45.602;11.904;2022-07-23T14:37:13;8.05;;;6.00;;
62574;SDS011;53112;45.602;11.904;2022-07-23T14:39:41;9.02;;;5.60;;
62574;SDS011;53112;45.602;11.904;2022-07-23T14:42:08;9.50;;;6.03;;
62574;SDS011;53112;45.602;11.904;2022-07-23T14:44:35;8.30;;;5.90;;
62574;SDS011;53112;45.602;11.904;2022-07-23T14:47:02;7.90;;;6.28;;
62574;SDS011;53112;45.602;11.904;2022-07-23T14:49:29;9.55;;;6.30;;
62574;SDS011;53112;45.602;11.904;2022-07-23T14:51:59;8.02;;;6.53;;
62574;SDS011;53112;45.602;11.904;2022-07-23T14:54:26;8.10;;;5.85;;
62574;SDS011;53112;45.602;11.904;2022-07-23T14:56:55;8.43;;;6.13;;
62574;SDS011;53112;45.602;11.904;2022-07-23T14:59:23;7.93;;;6.18;;
62574;SDS011;53112;45.602;11.904;2022-07-23T15:01:49;7.47;;;5.95;;
62574;SDS011;53112;45.602;11.904;2022-07-23T15:04:16;9.63;;;5.90;;
62574;SDS011;53112;45.602;11.904;2022-07-23T15:06:42;9.00;;;6.20;;
62574;SDS011;53112;45.602;11.904;2022-07-23T15:09:10;6.88;;;6.00;;
62574;SDS011;53112;45.602;11.904;2022-07-23T15:11:36;8.50;;;5.90;;
62574;SDS011;53112;45.602;11.904;2022-07-23T15:14:03;8.65;;;6.13;;
62574;SDS011;53112;45.602;11.904;2022-07-23T15:16:30;7.25;;;5.53;;
62574;SDS011;53112;45.602;11.904;2022-07-23T15:18:57;7.55;;;5.93;;